createdAt,value
2019-02-19T00:02:34.517Z,-2.53
2019-02-19T00:07:54.211Z,-2.58
2019-02-19T00:13:14.339Z,-2.61
2019-02-19T00:18:33.378Z,-2.67
2019-02-19T00:23:53.319Z,-2.67
2019-02-19T00:29:12.759Z,-2.64
2019-02-19T00:34:32.816Z,-2.74
2019-02-19T00:39:54.341Z,-2.61
2019-02-19T00:45:16.617Z,-2.69
2019-02-19T00:50:34.166Z,-2.72
2019-02-19T00:55:53.952Z,-2.60
2019-02-19T01:01:13.529Z,-2.76
2019-02-19T01:06:33.536Z,-2.90
2019-02-19T01:11:52.599Z,-2.90
2019-02-19T01:17:11.685Z,-2.89
2019-02-19T01:22:31.332Z,-2.90
2019-02-19T01:27:50.666Z,-2.92
2019-02-19T01:33:09.963Z,-2.95
2019-02-19T01:38:29.590Z,-2.88
2019-02-19T01:43:49.508Z,-2.87
2019-02-19T01:49:09.683Z,-2.92
2019-02-19T01:54:29.759Z,-2.95
2019-02-19T01:59:49.111Z,-3.04
2019-02-19T02:05:09.103Z,-3.13
2019-02-19T02:10:29.090Z,-3.12
2019-02-19T02:15:48.202Z,-2.96
2019-02-19T02:21:07.788Z,-3.05
2019-02-19T02:26:26.999Z,-3.25
2019-02-19T02:31:47.880Z,-3.30
2019-02-19T02:37:07.762Z,-3.42
2019-02-19T02:42:27.126Z,-3.41
2019-02-19T02:47:46.346Z,-3.37
2019-02-19T02:53:05.629Z,-3.38
2019-02-19T02:58:24.954Z,-3.41
2019-02-19T03:03:44.523Z,-3.47
2019-02-19T03:09:04.368Z,-3.51
2019-02-19T03:14:23.563Z,-3.43
2019-02-19T03:19:42.719Z,-3.43
2019-02-19T03:25:01.872Z,-3.51
2019-02-19T03:30:21.229Z,-3.62
2019-02-19T03:35:41.392Z,-3.63
2019-02-19T03:41:01.295Z,-3.60
2019-02-19T03:46:20.182Z,-3.67
2019-02-19T03:51:39.287Z,-3.72
2019-02-19T03:56:58.809Z,-3.76
2019-02-19T04:02:18.056Z,-3.84
2019-02-19T04:07:37.870Z,-3.90
2019-02-19T04:12:56.940Z,-3.89
2019-02-19T04:18:16.317Z,-3.95
2019-02-19T04:23:35.945Z,-3.98
2019-02-19T04:28:55.303Z,-4.04
2019-02-19T04:34:14.366Z,-3.94
2019-02-19T04:39:33.821Z,-4.04
2019-02-19T04:44:54.199Z,-3.94
2019-02-19T04:50:13.330Z,-4.00
2019-02-19T04:55:32.826Z,-4.07
2019-02-19T05:00:52.262Z,-4.09
2019-02-19T05:06:11.719Z,-4.11
2019-02-19T05:11:31.391Z,-4.14
2019-02-19T05:16:52.933Z,-4.12
2019-02-19T05:22:12.450Z,-4.27
2019-02-19T05:27:32.002Z,-4.27
2019-02-19T05:32:51.237Z,-4.27
2019-02-19T05:38:10.968Z,-4.22
2019-02-19T05:43:30.580Z,-4.18
2019-02-19T05:48:50.797Z,-4.21
2019-02-19T05:54:10.220Z,-4.20
2019-02-19T05:59:29.322Z,-4.14
2019-02-19T06:04:50.059Z,-4.11
2019-02-19T06:10:10.205Z,-4.12
2019-02-19T06:15:29.765Z,-4.10
2019-02-19T06:20:49.704Z,-4.04
2019-02-19T06:26:09.256Z,-4.02
2019-02-19T06:31:28.107Z,-4.01
2019-02-19T06:36:47.583Z,-3.99
2019-02-19T06:42:07.123Z,-3.91
2019-02-19T06:47:26.260Z,-3.75
2019-02-19T06:52:45.325Z,-3.57
2019-02-19T06:58:05.916Z,-3.48
2019-02-19T07:03:47.777Z,-3.29
2019-02-19T07:09:06.870Z,-3.07
2019-02-19T07:14:26.477Z,-2.83
2019-02-19T07:19:46.980Z,-2.62
2019-02-19T07:25:07.794Z,-2.38
2019-02-19T07:30:27.681Z,-1.90
2019-02-19T07:35:46.979Z,-1.90
2019-02-19T07:41:06.615Z,-1.62
2019-02-19T07:46:25.822Z,-1.37
2019-02-19T07:51:45.332Z,-1.09
2019-02-19T07:57:04.802Z,-0.54
2019-02-19T08:02:25.039Z,-0.54
2019-02-19T08:07:44.318Z,-0.22
2019-02-19T08:13:03.237Z,0.10
2019-02-19T08:18:25.048Z,0.45
2019-02-19T08:23:43.374Z,0.91
2019-02-19T08:29:13.277Z,1.24
2019-02-19T08:34:22.851Z,1.75
2019-02-19T08:39:42.792Z,2.17
2019-02-19T08:45:02.150Z,2.73
2019-02-19T08:50:21.430Z,3.82
2019-02-19T08:55:40.995Z,4.64
2019-02-19T09:01:00.621Z,5.54
2019-02-19T09:06:20.927Z,6.19
2019-02-19T09:11:40.114Z,6.68
2019-02-19T09:16:59.428Z,7.19
2019-02-19T09:22:18.803Z,7.70
2019-02-19T09:27:38.626Z,8.12
2019-02-19T09:32:57.792Z,8.45
2019-02-19T09:38:17.413Z,8.70
2019-02-19T09:43:36.996Z,8.98
2019-02-19T09:48:56.379Z,9.21
2019-02-19T09:54:16.721Z,9.46
2019-02-19T09:59:35.737Z,9.68
2019-02-19T10:04:54.865Z,9.93
2019-02-19T10:10:15.286Z,10.19
2019-02-19T10:15:34.717Z,10.34
2019-02-19T10:20:54.227Z,10.59
2019-02-19T10:26:14.252Z,10.85
2019-02-19T10:31:33.890Z,11.09
2019-02-19T10:36:53.913Z,11.39
2019-02-19T10:42:12.999Z,11.36
2019-02-19T10:47:32.503Z,11.81
2019-02-19T10:52:51.983Z,12.27
2019-02-19T10:58:11.615Z,12.64
2019-02-19T11:03:30.437Z,12.90
2019-02-19T11:08:50.574Z,13.37
2019-02-19T11:14:10.158Z,13.39
2019-02-19T11:19:30.017Z,13.78
2019-02-19T11:24:49.809Z,15.40
2019-02-19T11:30:12.174Z,17.91
2019-02-19T11:35:31.629Z,17.19
2019-02-19T11:40:52.036Z,16.74
2019-02-19T11:46:12.834Z,15.92
2019-02-19T11:51:32.537Z,16.64
2019-02-19T11:56:52.043Z,17.41
2019-02-19T12:02:13.952Z,19.36
2019-02-19T12:07:33.261Z,22.04
2019-02-19T12:12:52.242Z,24.04
2019-02-19T12:18:13.042Z,25.10
2019-02-19T12:23:32.515Z,24.38
2019-02-19T12:28:52.155Z,25.20
2019-02-19T12:34:12.223Z,26.72
2019-02-19T12:39:31.796Z,23.39
2019-02-19T12:44:51.217Z,22.22
2019-02-19T12:50:11.552Z,20.91
2019-02-19T12:55:30.932Z,20.61
2019-02-19T13:00:50.628Z,20.24
2019-02-19T13:06:09.730Z,20.33
2019-02-19T13:11:30.392Z,22.66
2019-02-19T13:16:50.937Z,22.14
2019-02-19T13:22:10.372Z,21.19
2019-02-19T13:27:30.200Z,22.41
2019-02-19T13:32:49.212Z,23.67
2019-02-19T13:38:09.583Z,24.45
2019-02-19T13:43:28.998Z,23.06
2019-02-19T13:48:48.913Z,22.42
2019-02-19T13:54:15.139Z,22.10
2019-02-19T13:59:35.089Z,22.15
2019-02-19T14:04:55.765Z,22.11
